sensor_id;sensor_type;location;lat;lon;timestamp;P1;durP1;ratioP1;P2;durP2;ratioP2
9700;SDS011;4889;48.620;7.892;2023-05-14T00:01:38;0.60;;;0.20;;
9700;SDS011;4889;48.620;7.892;2023-05-14T00:04:03;0.60;;;0.20;;
9700;SDS011;4889;48.620;7.892;2023-05-14T00:06:29;0.60;;;0.20;;
9700;SDS011;4889;48.620;7.892;2023-05-14T00:08:54;0.60;;;0.20;;
9700;SDS011;4889;48.620;7.892;2023-05-14T00:11:19;0.60;;;0.20;;
9700;SDS011;4889;48.620;7.892;2023-05-14T00:13:45;0.60;;;0.30;;
9700;SDS011;4889;48.620;7.892;2023-05-14T00:16:10;0.60;;;0.20;;
9700;SDS011;4889;48.620;7.892;2023-05-14T00:18:36;0.60;;;0.20;;
9700;SDS011;4889;48.620;7.892;2023-05-14T00:21:01;0.60;;;0.30;;
9700;SDS011;4889;48.620;7.892;2023-05-14T00:23:27;0.60;;;0.20;;
9700;SDS011;4889;48.620;7.892;2023-05-14T00:25:52;0.60;;;0.20;;
9700;SDS011;4889;48.620;7.892;2023-05-14T00:28:17;0.60;;;0.20;;
9700;SDS011;4889;48.620;7.892;2023-05-14T00:30:43;0.60;;;0.20;;
9700;SDS011;4889;48.620;7.892;2023-05-14T00:33:08;0.60;;;0.20;;
9700;SDS011;4889;48.620;7.892;2023-05-14T00:35:33;0.60;;;0.20;;
9700;SDS011;4889;48.620;7.892;2023-05-14T00:38:00;0.60;;;0.20;;
9700;SDS011;4889;48.620;7.892;2023-05-14T00:40:25;0.60;;;0.20;;
9700;SDS011;4889;48.620;7.892;2023-05-14T00:42:51;0.60;;;0.20;;
9700;SDS011;4889;48.620;7.892;2023-05-14T00:45:16;0.60;;;0.20;;
9700;SDS011;4889;48.620;7.892;2023-05-14T00:47:41;0.60;;;0.30;;
9700;SDS011;4889;48.620;7.892;2023-05-14T00:50:08;0.60;;;0.20;;
9700;SDS011;4889;48.620;7.892;2023-05-14T00:52:33;0.60;;;0.30;;
9700;SDS011;4889;48.620;7.892;2023-05-14T00:54:59;0.60;;;0.30;;
9700;SDS011;4889;48.620;7.892;2023-05-14T00:57:27;0.60;;;0.20;;
9700;SDS011;4889;48.620;7.892;2023-05-14T00:59:52;0.60;;;0.20;;
9700;SDS011;4889;48.620;7.892;2023-05-14T01:02:17;0.60;;;0.23;;
9700;SDS011;4889;48.620;7.892;2023-05-14T01:04:43;0.60;;;0.20;;
9700;SDS011;4889;48.620;7.892;2023-05-14T01:09:58;0.60;;;0.20;;
9700;SDS011;4889;48.620;7.892;2023-05-14T01:12:32;0.60;;;0.20;;
9700;SDS011;4889;48.620;7.892;2023-05-14T01:15:11;0.60;;;0.30;;
9700;SDS011;4889;48.620;7.892;2023-05-14T01:17:41;0.60;;;0.20;;
9700;SDS011;4889;48.620;7.892;2023-05-14T01:20:07;0.60;;;0.30;;
9700;SDS011;4889;48.620;7.892;2023-05-14T01:22:34;0.60;;;0.20;;
9700;SDS011;4889;48.620;7.892;2023-05-14T01:24:59;0.60;;;0.20;;
9700;SDS011;4889;48.620;7.892;2023-05-14T01:27:27;0.60;;;0.30;;
9700;SDS011;4889;48.620;7.892;2023-05-14T01:32:35;0.60;;;0.20;;
9700;SDS011;4889;48.620;7.892;2023-05-14T01:35:01;0.60;;;0.20;;
9700;SDS011;4889;48.620;7.892;2023-05-14T01:37:26;0.60;;;0.20;;
9700;SDS011;4889;48.620;7.892;2023-05-14T01:39:53;0.60;;;0.20;;
9700;SDS011;4889;48.620;7.892;2023-05-14T01:42:19;0.60;;;0.20;;
9700;SDS011;4889;48.620;7.892;2023-05-14T01:44:44;0.60;;;0.20;;
9700;SDS011;4889;48.620;7.892;2023-05-14T01:47:10;0.60;;;0.20;;
9700;SDS011;4889;48.620;7.892;2023-05-14T01:49:35;0.60;;;0.20;;
9700;SDS011;4889;48.620;7.892;2023-05-14T01:52:01;0.60;;;0.20;;
9700;SDS011;4889;48.620;7.892;2023-05-14T01:54:26;0.60;;;0.30;;
9700;SDS011;4889;48.620;7.892;2023-05-14T01:56:51;0.60;;;0.20;;
9700;SDS011;4889;48.620;7.892;2023-05-14T01:59:16;0.60;;;0.20;;
9700;SDS011;4889;48.620;7.892;2023-05-14T02:01:42;0.60;;;0.20;;
9700;SDS011;4889;48.620;7.892;2023-05-14T02:04:07;0.60;;;0.20;;
9700;SDS011;4889;48.620;7.892;2023-05-14T02:06:32;0.60;;;0.20;;
9700;SDS011;4889;48.620;7.892;2023-05-14T02:08:58;0.60;;;0.20;;
9700;SDS011;4889;48.620;7.892;2023-05-14T02:11:24;0.60;;;0.20;;
9700;SDS011;4889;48.620;7.892;2023-05-14T02:13:50;0.60;;;0.20;;
9700;SDS011;4889;48.620;7.892;2023-05-14T02:16:15;0.60;;;0.30;;
9700;SDS011;4889;48.620;7.892;2023-05-14T02:18:40;0.60;;;0.20;;
9700;SDS011;4889;48.620;7.892;2023-05-14T02:21:06;0.60;;;0.40;;
9700;SDS011;4889;48.620;7.892;2023-05-14T02:23:31;0.60;;;0.30;;
9700;SDS011;4889;48.620;7.892;2023-05-14T02:25:56;0.60;;;0.20;;
9700;SDS011;4889;48.620;7.892;2023-05-14T02:28:21;0.60;;;0.20;;
9700;SDS011;4889;48.620;7.892;2023-05-14T02:30:46;0.60;;;0.33;;
9700;SDS011;4889;48.620;7.892;2023-05-14T02:33:12;0.60;;;0.20;;
9700;SDS011;4889;48.620;7.892;2023-05-14T02:35:37;0.60;;;0.20;;
9700;SDS011;4889;48.620;7.892;2023-05-14T02:38:02;0.60;;;0.30;;
9700;SDS011;4889;48.620;7.892;2023-05-14T02:40:27;0.60;;;0.20;;
9700;SDS011;4889;48.620;7.892;2023-05-14T02:42:53;0.60;;;0.30;;
9700;SDS011;4889;48.620;7.892;2023-05-14T02:45:18;0.60;;;0.20;;
9700;SDS011;4889;48.620;7.892;2023-05-14T02:47:43;0.60;;;0.20;;
9700;SDS011;4889;48.620;7.892;2023-05-14T02:50:08;0.60;;;0.20;;
9700;SDS011;4889;48.620;7.892;2023-05-14T02:52:34;0.60;;;0.30;;
9700;SDS011;4889;48.620;7.892;2023-05-14T02:54:59;0.60;;;0.30;;
9700;SDS011;4889;48.620;7.892;2023-05-14T02:57:24;0.60;;;0.20;;
9700;SDS011;4889;48.620;7.892;2023-05-14T02:59:50;0.60;;;0.20;;
9700;SDS011;4889;48.620;7.892;2023-05-14T03:02:15;0.60;;;0.20;;
9700;SDS011;4889;48.620;7.892;2023-05-14T03:04:40;0.60;;;0.20;;
9700;SDS011;4889;48.620;7.892;2023-05-14T03:07:06;0.60;;;0.30;;
9700;SDS011;4889;48.620;7.892;2023-05-14T03:09:31;0.60;;;0.20;;
9700;SDS011;4889;48.620;7.892;2023-05-14T03:11:56;0.60;;;0.20;;
9700;SDS011;4889;48.620;7.892;2023-05-14T03:14:21;0.60;;;0.20;;
9700;SDS011;4889;48.620;7.892;2023-05-14T03:16:47;0.60;;;0.20;;
9700;SDS011;4889;48.620;7.892;2023-05-14T03:19:12;0.60;;;0.20;;
9700;SDS011;4889;48.620;7.892;2023-05-14T03:21:37;0.60;;;0.20;;
9700;SDS011;4889;48.620;7.892;2023-05-14T03:24:02;0.60;;;0.20;;
9700;SDS011;4889;48.620;7.892;2023-05-14T03:26:27;0.60;;;0.20;;
9700;SDS011;4889;48.620;7.892;2023-05-14T03:28:53;0.60;;;0.20;;
9700;SDS011;4889;48.620;7.892;2023-05-14T03:31:18;1.10;;;1.00;;
9700;SDS011;4889;48.620;7.892;2023-05-14T03:33:43;0.60;;;0.20;;
9700;SDS011;4889;48.620;7.892;2023-05-14T03:36:09;0.60;;;0.20;;
9700;SDS011;4889;48.620;7.892;2023-05-14T03:38:34;0.60;;;0.20;;
9700;SDS011;4889;48.620;7.892;2023-05-14T03:40:59;0.60;;;0.20;;
9700;SDS011;4889;48.620;7.892;2023-05-14T03:43:25;0.60;;;0.20;;
9700;SDS011;4889;48.620;7.892;2023-05-14T03:45:50;0.60;;;0.20;;
9700;SDS011;4889;48.620;7.892;2023-05-14T03:48:17;0.60;;;0.20;;
9700;SDS011;4889;48.620;7.892;2023-05-14T03:50:42;0.60;;;0.23;;
9700;SDS011;4889;48.620;7.892;2023-05-14T03:53:07;0.60;;;0.20;;
9700;SDS011;4889;48.620;7.892;2023-05-14T03:55:32;0.60;;;0.20;;
9700;SDS011;4889;48.620;7.892;2023-05-14T03:57:57;0.60;;;0.20;;
9700;SDS011;4889;48.620;7.892;2023-05-14T04:00:23;0.60;;;0.20;;
9700;SDS011;4889;48.620;7.892;2023-05-14T04:02:48;0.60;;;0.20;;
9700;SDS011;4889;48.620;7.892;2023-05-14T04:05:13;0.60;;;0.20;;
9700;SDS011;4889;48.620;7.892;2023-05-14T04:07:39;0.60;;;0.30;;
9700;SDS011;4889;48.620;7.892;2023-05-14T04:10:04;0.60;;;0.20;;
9700;SDS011;4889;48.620;7.892;2023-05-14T04:12:30;0.60;;;0.20;;
9700;SDS011;4889;48.620;7.892;2023-05-14T04:14:56;0.60;;;0.20;;
9700;SDS011;4889;48.620;7.892;2023-05-14T04:17:21;0.60;;;0.30;;
9700;SDS011;4889;48.620;7.892;2023-05-14T04:19:46;0.60;;;0.23;;
9700;SDS011;4889;48.620;7.892;2023-05-14T04:22:12;0.60;;;0.20;;
9700;SDS011;4889;48.620;7.892;2023-05-14T04:24:37;0.60;;;0.40;;
9700;SDS011;4889;48.620;7.892;2023-05-14T04:27:02;1.10;;;0.73;;
9700;SDS011;4889;48.620;7.892;2023-05-14T04:29:27;0.60;;;0.20;;
9700;SDS011;4889;48.620;7.892;2023-05-14T04:31:53;0.60;;;0.30;;
9700;SDS011;4889;48.620;7.892;2023-05-14T04:34:18;0.60;;;0.20;;
9700;SDS011;4889;48.620;7.892;2023-05-14T04:36:43;0.60;;;0.30;;
9700;SDS011;4889;48.620;7.892;2023-05-14T04:39:08;0.60;;;0.30;;
9700;SDS011;4889;48.620;7.892;2023-05-14T04:41:36;0.60;;;0.20;;
9700;SDS011;4889;48.620;7.892;2023-05-14T04:44:01;0.60;;;0.20;;
9700;SDS011;4889;48.620;7.892;2023-05-14T04:46:27;0.60;;;0.20;;
9700;SDS011;4889;48.620;7.892;2023-05-14T04:48:52;0.60;;;0.30;;
9700;SDS011;4889;48.620;7.892;2023-05-14T04:51:17;0.60;;;0.30;;
9700;SDS011;4889;48.620;7.892;2023-05-14T04:53:42;0.60;;;0.30;;
9700;SDS011;4889;48.620;7.892;2023-05-14T04:56:07;0.60;;;0.20;;
9700;SDS011;4889;48.620;7.892;2023-05-14T04:58:33;0.60;;;0.20;;
9700;SDS011;4889;48.620;7.892;2023-05-14T05:00:58;0.60;;;0.20;;
9700;SDS011;4889;48.620;7.892;2023-05-14T05:03:23;0.60;;;0.20;;
9700;SDS011;4889;48.620;7.892;2023-05-14T05:05:49;0.60;;;0.20;;
9700;SDS011;4889;48.620;7.892;2023-05-14T05:08:14;0.60;;;0.30;;
9700;SDS011;4889;48.620;7.892;2023-05-14T05:10:39;0.60;;;0.20;;
9700;SDS011;4889;48.620;7.892;2023-05-14T05:13:05;0.60;;;0.20;;
9700;SDS011;4889;48.620;7.892;2023-05-14T05:15:30;0.60;;;0.20;;
9700;SDS011;4889;48.620;7.892;2023-05-14T05:17:55;0.60;;;0.30;;
9700;SDS011;4889;48.620;7.892;2023-05-14T05:20:20;0.60;;;0.20;;
9700;SDS011;4889;48.620;7.892;2023-05-14T05:22:46;0.60;;;0.20;;
9700;SDS011;4889;48.620;7.892;2023-05-14T05:25:11;0.60;;;0.30;;
9700;SDS011;4889;48.620;7.892;2023-05-14T05:27:37;0.60;;;0.20;;
9700;SDS011;4889;48.620;7.892;2023-05-14T05:30:02;0.60;;;0.20;;
9700;SDS011;4889;48.620;7.892;2023-05-14T05:32:28;0.60;;;0.30;;
9700;SDS011;4889;48.620;7.892;2023-05-14T05:34:53;0.60;;;0.20;;
9700;SDS011;4889;48.620;7.892;2023-05-14T05:37:18;8.17;;;7.53;;
9700;SDS011;4889;48.620;7.892;2023-05-14T05:39:44;1.63;;;0.83;;
9700;SDS011;4889;48.620;7.892;2023-05-14T05:42:09;0.60;;;0.20;;
9700;SDS011;4889;48.620;7.892;2023-05-14T05:44:34;2.20;;;1.93;;
9700;SDS011;4889;48.620;7.892;2023-05-14T05:47:00;0.60;;;0.20;;
9700;SDS011;4889;48.620;7.892;2023-05-14T05:49:25;0.60;;;0.20;;
9700;SDS011;4889;48.620;7.892;2023-05-14T05:51:50;0.60;;;0.23;;
9700;SDS011;4889;48.620;7.892;2023-05-14T05:54:16;0.60;;;0.30;;
9700;SDS011;4889;48.620;7.892;2023-05-14T05:56:41;0.60;;;0.20;;
9700;SDS011;4889;48.620;7.892;2023-05-14T05:59:06;0.60;;;0.20;;
9700;SDS011;4889;48.620;7.892;2023-05-14T06:01:32;0.60;;;0.20;;
9700;SDS011;4889;48.620;7.892;2023-05-14T06:03:57;0.60;;;0.30;;
9700;SDS011;4889;48.620;7.892;2023-05-14T06:06:22;1.20;;;1.07;;
9700;SDS011;4889;48.620;7.892;2023-05-14T06:08:47;0.60;;;0.20;;
9700;SDS011;4889;48.620;7.892;2023-05-14T06:11:13;0.77;;;0.50;;
9700;SDS011;4889;48.620;7.892;2023-05-14T06:13:39;0.60;;;0.20;;
9700;SDS011;4889;48.620;7.892;2023-05-14T06:16:04;0.60;;;0.20;;
9700;SDS011;4889;48.620;7.892;2023-05-14T06:18:30;0.60;;;0.30;;
9700;SDS011;4889;48.620;7.892;2023-05-14T06:20:55;0.60;;;0.20;;
9700;SDS011;4889;48.620;7.892;2023-05-14T06:23:21;1.13;;;0.70;;
9700;SDS011;4889;48.620;7.892;2023-05-14T06:25:48;0.60;;;0.20;;
9700;SDS011;4889;48.620;7.892;2023-05-14T06:28:13;0.60;;;0.20;;
9700;SDS011;4889;48.620;7.892;2023-05-14T06:30:39;3.03;;;2.73;;
9700;SDS011;4889;48.620;7.892;2023-05-14T06:33:04;0.60;;;0.20;;
9700;SDS011;4889;48.620;7.892;2023-05-14T06:35:29;0.60;;;0.30;;
9700;SDS011;4889;48.620;7.892;2023-05-14T06:37:54;0.60;;;0.20;;
9700;SDS011;4889;48.620;7.892;2023-05-14T06:40:20;0.60;;;0.20;;
9700;SDS011;4889;48.620;7.892;2023-05-14T06:42:45;0.60;;;0.20;;
9700;SDS011;4889;48.620;7.892;2023-05-14T06:45:10;0.60;;;0.20;;
9700;SDS011;4889;48.620;7.892;2023-05-14T06:47:36;0.60;;;0.20;;
9700;SDS011;4889;48.620;7.892;2023-05-14T06:50:01;0.60;;;0.33;;
9700;SDS011;4889;48.620;7.892;2023-05-14T06:52:26;0.60;;;0.30;;
9700;SDS011;4889;48.620;7.892;2023-05-14T06:54:51;0.60;;;0.20;;
9700;SDS011;4889;48.620;7.892;2023-05-14T06:57:17;0.60;;;0.20;;
9700;SDS011;4889;48.620;7.892;2023-05-14T06:59:42;0.60;;;0.27;;
9700;SDS011;4889;48.620;7.892;2023-05-14T07:02:07;0.60;;;0.30;;
9700;SDS011;4889;48.620;7.892;2023-05-14T07:04:32;1.00;;;0.50;;
9700;SDS011;4889;48.620;7.892;2023-05-14T07:06:59;0.60;;;0.20;;
9700;SDS011;4889;48.620;7.892;2023-05-14T07:09:24;0.60;;;0.23;;
9700;SDS011;4889;48.620;7.892;2023-05-14T07:11:49;0.60;;;0.27;;
9700;SDS011;4889;48.620;7.892;2023-05-14T07:14:14;0.60;;;0.27;;
9700;SDS011;4889;48.620;7.892;2023-05-14T07:16:40;0.60;;;0.20;;
9700;SDS011;4889;48.620;7.892;2023-05-14T07:19:06;1.63;;;0.77;;
9700;SDS011;4889;48.620;7.892;2023-05-14T07:21:31;2.40;;;1.07;;
9700;SDS011;4889;48.620;7.892;2023-05-14T07:23:56;0.60;;;0.30;;
9700;SDS011;4889;48.620;7.892;2023-05-14T07:26:21;0.60;;;0.20;;
9700;SDS011;4889;48.620;7.892;2023-05-14T07:28:48;0.60;;;0.20;;
9700;SDS011;4889;48.620;7.892;2023-05-14T07:31:13;0.60;;;0.30;;
9700;SDS011;4889;48.620;7.892;2023-05-14T07:33:38;0.60;;;0.30;;
9700;SDS011;4889;48.620;7.892;2023-05-14T07:36:04;0.60;;;0.20;;
9700;SDS011;4889;48.620;7.892;2023-05-14T07:38:30;0.80;;;0.50;;
9700;SDS011;4889;48.620;7.892;2023-05-14T07:40:56;1.73;;;0.40;;
9700;SDS011;4889;48.620;7.892;2023-05-14T07:43:21;0.60;;;0.30;;
9700;SDS011;4889;48.620;7.892;2023-05-14T07:45:46;0.60;;;0.20;;
9700;SDS011;4889;48.620;7.892;2023-05-14T07:48:11;0.60;;;0.30;;
9700;SDS011;4889;48.620;7.892;2023-05-14T07:50:37;0.60;;;0.33;;
9700;SDS011;4889;48.620;7.892;2023-05-14T07:53:02;0.63;;;0.40;;
9700;SDS011;4889;48.620;7.892;2023-05-14T07:55:27;0.60;;;0.30;;
9700;SDS011;4889;48.620;7.892;2023-05-14T07:57:52;0.90;;;0.70;;
9700;SDS011;4889;48.620;7.892;2023-05-14T08:00:18;2.63;;;2.13;;
9700;SDS011;4889;48.620;7.892;2023-05-14T08:02:43;0.60;;;0.30;;
9700;SDS011;4889;48.620;7.892;2023-05-14T08:05:08;0.60;;;0.23;;
9700;SDS011;4889;48.620;7.892;2023-05-14T08:07:34;0.70;;;0.30;;
9700;SDS011;4889;48.620;7.892;2023-05-14T08:09:59;0.70;;;0.30;;
9700;SDS011;4889;48.620;7.892;2023-05-14T08:12:24;0.70;;;0.30;;
9700;SDS011;4889;48.620;7.892;2023-05-14T08:14:50;0.70;;;0.30;;
9700;SDS011;4889;48.620;7.892;2023-05-14T08:17:16;1.43;;;0.77;;
9700;SDS011;4889;48.620;7.892;2023-05-14T08:19:41;0.80;;;0.40;;
9700;SDS011;4889;48.620;7.892;2023-05-14T08:22:07;0.80;;;0.40;;
9700;SDS011;4889;48.620;7.892;2023-05-14T08:24:32;1.30;;;0.50;;
9700;SDS011;4889;48.620;7.892;2023-05-14T08:26:57;1.40;;;0.30;;
9700;SDS011;4889;48.620;7.892;2023-05-14T08:29:22;1.60;;;0.30;;
9700;SDS011;4889;48.620;7.892;2023-05-14T08:31:48;2.43;;;0.80;;
9700;SDS011;4889;48.620;7.892;2023-05-14T08:34:14;1.60;;;0.30;;
9700;SDS011;4889;48.620;7.892;2023-05-14T08:36:39;2.30;;;0.73;;
9700;SDS011;4889;48.620;7.892;2023-05-14T08:39:04;2.50;;;0.60;;
9700;SDS011;4889;48.620;7.892;2023-05-14T08:41:31;2.80;;;0.80;;
9700;SDS011;4889;48.620;7.892;2023-05-14T08:46:25;2.50;;;0.30;;
9700;SDS011;4889;48.620;7.892;2023-05-14T08:48:55;2.60;;;0.30;;
9700;SDS011;4889;48.620;7.892;2023-05-14T08:51:21;2.80;;;0.30;;
9700;SDS011;4889;48.620;7.892;2023-05-14T08:53:47;3.03;;;0.30;;
9700;SDS011;4889;48.620;7.892;2023-05-14T08:56:13;3.20;;;0.40;;
9700;SDS011;4889;48.620;7.892;2023-05-14T08:58:39;3.35;;;0.30;;
9700;SDS011;4889;48.620;7.892;2023-05-14T09:01:05;5.70;;;1.45;;
9700;SDS011;4889;48.620;7.892;2023-05-14T09:03:31;9.52;;;2.05;;
9700;SDS011;4889;48.620;7.892;2023-05-14T09:05:57;3.70;;;0.50;;
9700;SDS011;4889;48.620;7.892;2023-05-14T09:08:23;3.60;;;0.30;;
9700;SDS011;4889;48.620;7.892;2023-05-14T09:10:48;3.60;;;0.30;;
9700;SDS011;4889;48.620;7.892;2023-05-14T09:13:13;3.60;;;0.30;;
9700;SDS011;4889;48.620;7.892;2023-05-14T09:15:38;3.60;;;0.30;;
9700;SDS011;4889;48.620;7.892;2023-05-14T09:18:05;4.10;;;0.30;;
9700;SDS011;4889;48.620;7.892;2023-05-14T09:20:31;4.65;;;0.55;;
9700;SDS011;4889;48.620;7.892;2023-05-14T09:22:57;4.30;;;0.88;;
9700;SDS011;4889;48.620;7.892;2023-05-14T09:25:28;4.10;;;0.52;;
9700;SDS011;4889;48.620;7.892;2023-05-14T09:27:55;3.90;;;0.30;;
9700;SDS011;4889;48.620;7.892;2023-05-14T09:30:20;4.00;;;0.30;;
9700;SDS011;4889;48.620;7.892;2023-05-14T09:32:46;3.90;;;0.30;;
9700;SDS011;4889;48.620;7.892;2023-05-14T09:35:16;3.85;;;0.30;;
9700;SDS011;4889;48.620;7.892;2023-05-14T09:37:42;3.70;;;0.30;;
9700;SDS011;4889;48.620;7.892;2023-05-14T09:40:08;3.70;;;0.30;;
9700;SDS011;4889;48.620;7.892;2023-05-14T09:42:33;6.95;;;1.02;;
9700;SDS011;4889;48.620;7.892;2023-05-14T09:44:59;3.80;;;0.40;;
9700;SDS011;4889;48.620;7.892;2023-05-14T09:47:24;3.63;;;0.30;;
9700;SDS011;4889;48.620;7.892;2023-05-14T09:49:51;4.10;;;0.63;;
9700;SDS011;4889;48.620;7.892;2023-05-14T09:52:17;3.83;;;0.40;;
9700;SDS011;4889;48.620;7.892;2023-05-14T09:54:42;3.88;;;0.63;;
9700;SDS011;4889;48.620;7.892;2023-05-14T09:57:08;3.70;;;0.30;;
9700;SDS011;4889;48.620;7.892;2023-05-14T09:59:33;3.67;;;0.30;;
9700;SDS011;4889;48.620;7.892;2023-05-14T10:01:59;3.72;;;0.30;;
9700;SDS011;4889;48.620;7.892;2023-05-14T10:04:24;3.70;;;0.30;;
9700;SDS011;4889;48.620;7.892;2023-05-14T10:06:50;3.70;;;0.30;;
9700;SDS011;4889;48.620;7.892;2023-05-14T10:09:16;3.67;;;0.30;;
9700;SDS011;4889;48.620;7.892;2023-05-14T10:11:43;3.67;;;0.40;;
9700;SDS011;4889;48.620;7.892;2023-05-14T10:14:23;3.35;;;0.30;;
9700;SDS011;4889;48.620;7.892;2023-05-14T10:16:49;3.42;;;0.30;;
9700;SDS011;4889;48.620;7.892;2023-05-14T10:19:16;3.30;;;0.30;;
9700;SDS011;4889;48.620;7.892;2023-05-14T10:21:43;3.08;;;0.30;;
9700;SDS011;4889;48.620;7.892;2023-05-14T10:24:09;3.67;;;0.65;;
9700;SDS011;4889;48.620;7.892;2023-05-14T10:26:35;3.10;;;0.30;;
9700;SDS011;4889;48.620;7.892;2023-05-14T10:29:05;2.90;;;0.30;;
9700;SDS011;4889;48.620;7.892;2023-05-14T10:34:29;3.80;;;0.82;;
9700;SDS011;4889;48.620;7.892;2023-05-14T10:36:59;2.95;;;0.30;;
9700;SDS011;4889;48.620;7.892;2023-05-14T10:42:16;2.90;;;0.30;;
9700;SDS011;4889;48.620;7.892;2023-05-14T10:44:47;2.80;;;0.30;;
9700;SDS011;4889;48.620;7.892;2023-05-14T10:47:12;2.67;;;0.30;;
9700;SDS011;4889;48.620;7.892;2023-05-14T10:49:38;2.67;;;0.30;;
9700;SDS011;4889;48.620;7.892;2023-05-14T10:52:06;3.63;;;1.23;;
9700;SDS011;4889;48.620;7.892;2023-05-14T10:54:33;2.67;;;0.30;;
9700;SDS011;4889;48.620;7.892;2023-05-14T10:56:59;2.65;;;0.30;;
9700;SDS011;4889;48.620;7.892;2023-05-14T10:59:26;2.70;;;0.30;;
9700;SDS011;4889;48.620;7.892;2023-05-14T11:01:51;2.70;;;0.40;;
9700;SDS011;4889;48.620;7.892;2023-05-14T11:04:17;2.50;;;0.30;;
9700;SDS011;4889;48.620;7.892;2023-05-14T11:06:43;2.60;;;0.30;;
9700;SDS011;4889;48.620;7.892;2023-05-14T11:09:08;2.60;;;0.30;;
9700;SDS011;4889;48.620;7.892;2023-05-14T11:11:34;2.60;;;0.50;;
9700;SDS011;4889;48.620;7.892;2023-05-14T11:13:59;2.58;;;0.30;;
9700;SDS011;4889;48.620;7.892;2023-05-14T11:16:26;2.50;;;0.30;;
9700;SDS011;4889;48.620;7.892;2023-05-14T11:19:01;2.50;;;0.30;;
9700;SDS011;4889;48.620;7.892;2023-05-14T11:21:27;2.50;;;0.30;;
9700;SDS011;4889;48.620;7.892;2023-05-14T11:23:53;2.60;;;0.30;;
9700;SDS011;4889;48.620;7.892;2023-05-14T11:26:18;2.50;;;0.30;;
9700;SDS011;4889;48.620;7.892;2023-05-14T11:28:44;2.60;;;0.77;;
9700;SDS011;4889;48.620;7.892;2023-05-14T11:31:09;2.10;;;0.30;;
9700;SDS011;4889;48.620;7.892;2023-05-14T11:33:34;2.30;;;0.30;;
9700;SDS011;4889;48.620;7.892;2023-05-14T11:36:00;2.20;;;0.40;;
9700;SDS011;4889;48.620;7.892;2023-05-14T11:38:25;2.00;;;0.40;;
9700;SDS011;4889;48.620;7.892;2023-05-14T11:40:51;2.67;;;1.13;;
9700;SDS011;4889;48.620;7.892;2023-05-14T11:43:17;1.83;;;0.30;;
9700;SDS011;4889;48.620;7.892;2023-05-14T11:45:42;1.90;;;0.60;;
9700;SDS011;4889;48.620;7.892;2023-05-14T11:48:10;1.80;;;0.40;;
9700;SDS011;4889;48.620;7.892;2023-05-14T11:50:35;1.63;;;0.30;;
9700;SDS011;4889;48.620;7.892;2023-05-14T11:53:01;1.60;;;0.30;;
9700;SDS011;4889;48.620;7.892;2023-05-14T11:55:26;1.70;;;0.30;;
9700;SDS011;4889;48.620;7.892;2023-05-14T11:57:51;1.60;;;0.30;;
9700;SDS011;4889;48.620;7.892;2023-05-14T12:00:16;1.60;;;0.30;;
9700;SDS011;4889;48.620;7.892;2023-05-14T12:02:46;1.70;;;0.30;;
9700;SDS011;4889;48.620;7.892;2023-05-14T12:05:11;1.90;;;0.50;;
9700;SDS011;4889;48.620;7.892;2023-05-14T12:07:37;1.90;;;0.40;;
9700;SDS011;4889;48.620;7.892;2023-05-14T12:10:03;1.70;;;0.30;;
9700;SDS011;4889;48.620;7.892;2023-05-14T12:12:32;1.90;;;0.60;;
9700;SDS011;4889;48.620;7.892;2023-05-14T12:14:58;1.70;;;0.30;;
9700;SDS011;4889;48.620;7.892;2023-05-14T12:17:23;1.70;;;0.40;;
9700;SDS011;4889;48.620;7.892;2023-05-14T12:19:49;1.60;;;0.30;;
9700;SDS011;4889;48.620;7.892;2023-05-14T12:22:18;1.65;;;0.35;;
9700;SDS011;4889;48.620;7.892;2023-05-14T12:24:51;1.70;;;0.40;;
9700;SDS011;4889;48.620;7.892;2023-05-14T12:27:20;1.50;;;0.30;;
9700;SDS011;4889;48.620;7.892;2023-05-14T12:29:46;1.73;;;0.60;;
9700;SDS011;4889;48.620;7.892;2023-05-14T12:32:11;1.60;;;0.30;;
9700;SDS011;4889;48.620;7.892;2023-05-14T12:34:36;1.60;;;0.30;;
9700;SDS011;4889;48.620;7.892;2023-05-14T12:37:02;1.60;;;0.30;;
9700;SDS011;4889;48.620;7.892;2023-05-14T12:39:29;1.48;;;0.40;;
9700;SDS011;4889;48.620;7.892;2023-05-14T12:41:54;1.58;;;1.00;;
9700;SDS011;4889;48.620;7.892;2023-05-14T12:44:20;1.30;;;0.40;;
9700;SDS011;4889;48.620;7.892;2023-05-14T12:46:46;1.13;;;0.30;;
9700;SDS011;4889;48.620;7.892;2023-05-14T12:49:11;1.20;;;0.40;;
9700;SDS011;4889;48.620;7.892;2023-05-14T12:51:37;1.25;;;0.30;;
9700;SDS011;4889;48.620;7.892;2023-05-14T12:54:02;1.13;;;0.30;;
9700;SDS011;4889;48.620;7.892;2023-05-14T12:56:27;1.20;;;0.38;;
9700;SDS011;4889;48.620;7.892;2023-05-14T12:58:54;1.10;;;0.30;;
9700;SDS011;4889;48.620;7.892;2023-05-14T13:01:20;1.40;;;0.40;;
9700;SDS011;4889;48.620;7.892;2023-05-14T13:03:45;1.08;;;0.30;;
9700;SDS011;4889;48.620;7.892;2023-05-14T13:06:11;1.13;;;0.50;;
9700;SDS011;4889;48.620;7.892;2023-05-14T13:08:36;0.90;;;0.30;;
9700;SDS011;4889;48.620;7.892;2023-05-14T13:11:01;0.93;;;0.30;;
9700;SDS011;4889;48.620;7.892;2023-05-14T13:13:27;1.00;;;0.30;;
9700;SDS011;4889;48.620;7.892;2023-05-14T13:15:52;1.00;;;0.40;;
9700;SDS011;4889;48.620;7.892;2023-05-14T13:18:17;0.90;;;0.30;;
9700;SDS011;4889;48.620;7.892;2023-05-14T13:20:43;0.80;;;0.30;;
9700;SDS011;4889;48.620;7.892;2023-05-14T13:23:08;1.10;;;0.40;;
9700;SDS011;4889;48.620;7.892;2023-05-14T13:25:34;1.00;;;0.45;;
9700;SDS011;4889;48.620;7.892;2023-05-14T13:27:59;2.70;;;0.75;;
9700;SDS011;4889;48.620;7.892;2023-05-14T13:30:24;1.10;;;0.30;;
9700;SDS011;4889;48.620;7.892;2023-05-14T13:32:50;1.20;;;0.30;;
9700;SDS011;4889;48.620;7.892;2023-05-14T13:35:15;1.40;;;0.40;;
9700;SDS011;4889;48.620;7.892;2023-05-14T13:37:41;1.30;;;0.30;;
9700;SDS011;4889;48.620;7.892;2023-05-14T13:40:07;1.30;;;0.32;;
9700;SDS011;4889;48.620;7.892;2023-05-14T13:42:33;1.42;;;0.43;;
9700;SDS011;4889;48.620;7.892;2023-05-14T13:44:58;1.52;;;0.40;;
9700;SDS011;4889;48.620;7.892;2023-05-14T13:47:24;1.40;;;0.30;;
9700;SDS011;4889;48.620;7.892;2023-05-14T13:49:50;1.55;;;0.40;;
9700;SDS011;4889;48.620;7.892;2023-05-14T13:52:16;1.70;;;0.40;;
9700;SDS011;4889;48.620;7.892;2023-05-14T13:54:41;1.70;;;0.30;;
9700;SDS011;4889;48.620;7.892;2023-05-14T13:57:06;1.75;;;0.30;;
9700;SDS011;4889;48.620;7.892;2023-05-14T13:59:31;2.10;;;0.68;;
9700;SDS011;4889;48.620;7.892;2023-05-14T14:01:56;1.60;;;0.30;;
9700;SDS011;4889;48.620;7.892;2023-05-14T14:04:22;1.80;;;0.50;;
9700;SDS011;4889;48.620;7.892;2023-05-14T14:06:49;1.50;;;0.30;;
9700;SDS011;4889;48.620;7.892;2023-05-14T14:09:14;1.50;;;0.30;;
9700;SDS011;4889;48.620;7.892;2023-05-14T14:11:44;1.40;;;0.40;;
9700;SDS011;4889;48.620;7.892;2023-05-14T14:14:10;1.38;;;0.30;;
9700;SDS011;4889;48.620;7.892;2023-05-14T14:16:35;1.40;;;0.30;;
9700;SDS011;4889;48.620;7.892;2023-05-14T14:19:00;1.60;;;0.40;;
9700;SDS011;4889;48.620;7.892;2023-05-14T14:21:25;1.30;;;0.30;;
9700;SDS011;4889;48.620;7.892;2023-05-14T14:23:51;1.33;;;0.30;;
9700;SDS011;4889;48.620;7.892;2023-05-14T14:26:16;1.33;;;0.30;;
9700;SDS011;4889;48.620;7.892;2023-05-14T14:28:41;1.20;;;0.30;;
9700;SDS011;4889;48.620;7.892;2023-05-14T14:31:07;1.27;;;0.30;;
9700;SDS011;4889;48.620;7.892;2023-05-14T14:33:32;1.20;;;0.30;;
9700;SDS011;4889;48.620;7.892;2023-05-14T14:35:57;1.30;;;0.73;;
9700;SDS011;4889;48.620;7.892;2023-05-14T14:38:23;1.10;;;0.30;;
9700;SDS011;4889;48.620;7.892;2023-05-14T14:40:49;1.10;;;0.30;;
9700;SDS011;4889;48.620;7.892;2023-05-14T14:43:14;1.10;;;0.30;;
9700;SDS011;4889;48.620;7.892;2023-05-14T14:45:40;1.13;;;0.30;;
9700;SDS011;4889;48.620;7.892;2023-05-14T14:50:50;1.08;;;0.30;;
9700;SDS011;4889;48.620;7.892;2023-05-14T14:53:16;1.10;;;0.30;;
9700;SDS011;4889;48.620;7.892;2023-05-14T14:55:41;1.10;;;0.30;;
9700;SDS011;4889;48.620;7.892;2023-05-14T14:58:06;1.10;;;0.30;;
9700;SDS011;4889;48.620;7.892;2023-05-14T15:00:32;1.73;;;0.50;;
9700;SDS011;4889;48.620;7.892;2023-05-14T15:02:57;2.17;;;0.57;;
9700;SDS011;4889;48.620;7.892;2023-05-14T15:05:22;1.20;;;0.52;;
9700;SDS011;4889;48.620;7.892;2023-05-14T15:07:48;1.20;;;0.30;;
9700;SDS011;4889;48.620;7.892;2023-05-14T15:10:13;1.10;;;0.30;;
9700;SDS011;4889;48.620;7.892;2023-05-14T15:12:38;1.17;;;0.30;;
9700;SDS011;4889;48.620;7.892;2023-05-14T15:15:04;1.20;;;0.30;;
9700;SDS011;4889;48.620;7.892;2023-05-14T15:17:29;1.20;;;0.30;;
9700;SDS011;4889;48.620;7.892;2023-05-14T15:19:54;1.13;;;0.30;;
9700;SDS011;4889;48.620;7.892;2023-05-14T15:22:20;1.20;;;0.40;;